createdAt,value
2017-10-24T00:01:32.313Z,4.15
2017-10-24T00:03:58.742Z,4.68
2017-10-24T00:06:25.200Z,4.55
2017-10-24T00:08:51.630Z,4.90
2017-10-24T00:11:18.070Z,4.37
2017-10-24T00:13:45.268Z,4.10
2017-10-24T00:16:11.749Z,4.10
2017-10-24T00:18:38.165Z,4.43
2017-10-24T00:21:04.674Z,4.32
2017-10-24T00:23:31.126Z,4.95
2017-10-24T00:25:58.325Z,4.32
2017-10-24T00:28:24.767Z,4.22
2017-10-24T00:30:51.218Z,4.35
2017-10-24T00:33:17.694Z,4.90
2017-10-24T00:35:44.891Z,4.35
2017-10-24T00:38:11.336Z,5.00
2017-10-24T00:40:37.762Z,4.03
2017-10-24T00:43:04.215Z,4.50
2017-10-24T00:45:31.431Z,4.70
2017-10-24T00:47:57.916Z,4.93
2017-10-24T00:50:24.365Z,4.43
2017-10-24T00:52:51.614Z,4.55
2017-10-24T00:55:18.134Z,3.90
2017-10-24T00:57:44.670Z,4.68
2017-10-24T01:00:11.177Z,4.65
2017-10-24T01:02:37.658Z,5.30
2017-10-24T01:05:04.163Z,3.70
2017-10-24T01:07:30.658Z,4.25
2017-10-24T01:09:57.085Z,4.22
2017-10-24T01:12:23.549Z,4.87
2017-10-24T01:14:49.997Z,4.07
2017-10-24T01:17:17.235Z,4.32
2017-10-24T01:19:43.853Z,3.97
2017-10-24T01:22:10.385Z,4.32
2017-10-24T01:24:36.906Z,4.20
2017-10-24T01:27:03.488Z,3.85
2017-10-24T01:29:30.790Z,3.75
2017-10-24T01:31:57.325Z,3.62
2017-10-24T01:34:23.889Z,3.92
2017-10-24T01:36:50.461Z,4.15
2017-10-24T01:39:16.985Z,3.65
2017-10-24T01:41:43.478Z,3.55
2017-10-24T01:44:09.985Z,3.75
2017-10-24T01:46:36.551Z,3.60
2017-10-24T01:49:03.092Z,3.55
2017-10-24T01:51:29.545Z,3.92
2017-10-24T01:53:56.024Z,3.80
2017-10-24T01:56:22.565Z,3.70
2017-10-24T01:58:49.105Z,3.75
2017-10-24T02:01:15.647Z,3.80
2017-10-24T02:03:42.165Z,4.05
2017-10-24T02:06:08.682Z,3.90
2017-10-24T02:08:35.939Z,4.00
2017-10-24T02:11:02.499Z,3.75
2017-10-24T02:13:28.994Z,3.92
2017-10-24T02:15:55.549Z,3.87
2017-10-24T02:18:22.035Z,4.30
2017-10-24T02:20:48.637Z,3.60
2017-10-24T02:23:15.085Z,4.35
2017-10-24T02:25:41.594Z,4.10
2017-10-24T02:28:08.132Z,4.20
2017-10-24T02:30:34.618Z,3.97
2017-10-24T02:33:01.102Z,4.07
2017-10-24T02:35:27.569Z,3.75
2017-10-24T02:37:54.021Z,3.62
2017-10-24T02:40:20.486Z,3.30
2017-10-24T02:42:47.728Z,3.12
2017-10-24T02:45:14.225Z,3.00
2017-10-24T02:47:40.712Z,2.95
2017-10-24T02:50:07.989Z,3.10
2017-10-24T02:52:34.448Z,3.12
2017-10-24T02:55:00.906Z,3.17
2017-10-24T02:57:27.375Z,2.55
2017-10-24T02:59:53.821Z,2.60
2017-10-24T03:02:20.274Z,3.00
2017-10-24T03:04:47.550Z,2.90
2017-10-24T03:07:14.735Z,2.83
2017-10-24T03:09:41.210Z,2.95
2017-10-24T03:12:07.713Z,3.00
2017-10-24T03:14:34.174Z,2.58
2017-10-24T03:17:00.657Z,3.15
2017-10-24T03:19:27.887Z,2.97
2017-10-24T03:21:54.352Z,2.50
2017-10-24T03:24:20.894Z,3.37
2017-10-24T03:26:47.388Z,2.92
2017-10-24T03:29:14.645Z,2.47
2017-10-24T03:31:41.082Z,2.28
2017-10-24T03:34:07.544Z,2.40
2017-10-24T03:36:34.027Z,2.40
2017-10-24T03:39:00.526Z,2.28
2017-10-24T03:41:26.977Z,2.40
2017-10-24T03:43:53.421Z,2.30
2017-10-24T03:46:19.906Z,2.17
2017-10-24T03:48:46.345Z,2.30
2017-10-24T03:51:12.845Z,2.08
2017-10-24T03:53:39.296Z,2.25
2017-10-24T03:56:05.711Z,2.28
2017-10-24T03:58:32.172Z,2.20
2017-10-24T04:00:59.323Z,2.40
2017-10-24T04:03:25.791Z,2.08
2017-10-24T04:05:52.266Z,2.00
2017-10-24T04:08:18.758Z,2.00
2017-10-24T04:10:45.241Z,2.28
2017-10-24T04:13:11.793Z,1.77
2017-10-24T04:15:38.233Z,1.87
2017-10-24T04:18:05.404Z,1.60
2017-10-24T04:20:31.920Z,1.70
2017-10-24T04:22:58.425Z,2.10
2017-10-24T04:25:24.967Z,1.83
2017-10-24T04:27:51.394Z,2.20
2017-10-24T04:30:18.771Z,1.90
2017-10-24T04:32:45.209Z,1.90
2017-10-24T04:35:11.725Z,3.00
2017-10-24T04:37:38.966Z,5.62
2017-10-24T04:40:05.403Z,4.20
2017-10-24T04:42:32.628Z,2.85
2017-10-24T04:44:59.082Z,2.85
2017-10-24T04:47:26.309Z,3.60
2017-10-24T04:49:52.801Z,3.30
2017-10-24T04:52:19.255Z,3.30
2017-10-24T04:54:45.716Z,4.12
2017-10-24T04:57:12.146Z,3.47
2017-10-24T04:59:38.655Z,3.30
2017-10-24T05:02:05.061Z,3.85
2017-10-24T05:04:31.530Z,3.58
2017-10-24T05:06:57.992Z,3.53
2017-10-24T05:09:24.476Z,4.15
2017-10-24T05:11:50.927Z,4.80
2017-10-24T05:14:17.374Z,3.97
2017-10-24T05:16:43.817Z,3.87
2017-10-24T05:19:10.274Z,3.80
2017-10-24T05:21:36.730Z,3.45
2017-10-24T05:24:03.970Z,3.35
2017-10-24T05:26:30.431Z,3.00
2017-10-24T05:28:56.876Z,3.50
2017-10-24T05:31:23.366Z,3.95
2017-10-24T05:33:50.558Z,3.15
2017-10-24T05:36:17.018Z,3.33
2017-10-24T05:38:43.493Z,5.20
2017-10-24T05:41:09.913Z,3.80
2017-10-24T05:43:37.125Z,4.15
2017-10-24T05:46:03.554Z,3.85
2017-10-24T05:48:30.013Z,4.00
2017-10-24T05:50:56.465Z,5.53
2017-10-24T05:53:22.962Z,4.28
2017-10-24T05:55:49.430Z,6.85
2017-10-24T05:58:16.615Z,4.00
2017-10-24T06:00:43.096Z,3.75
2017-10-24T06:03:09.549Z,3.37
2017-10-24T06:05:35.999Z,3.25
2017-10-24T06:08:02.460Z,3.60
2017-10-24T06:10:28.918Z,4.25
2017-10-24T06:12:56.127Z,3.47
2017-10-24T06:15:22.664Z,4.90
2017-10-24T06:17:49.127Z,2.90
2017-10-24T06:20:15.603Z,3.72
2017-10-24T06:22:42.848Z,3.60
2017-10-24T06:25:09.348Z,4.05
2017-10-24T06:27:35.826Z,3.42
2017-10-24T06:30:03.067Z,3.42
2017-10-24T06:32:29.549Z,4.45
2017-10-24T06:34:55.980Z,5.10
2017-10-24T06:37:22.469Z,4.37
2017-10-24T06:39:49.682Z,4.25
2017-10-24T06:42:16.170Z,4.80
2017-10-24T06:44:43.412Z,4.05
2017-10-24T06:47:09.862Z,4.72
2017-10-24T06:49:36.309Z,3.80
2017-10-24T06:52:02.782Z,4.20
2017-10-24T06:54:29.998Z,6.50
2017-10-24T06:56:56.469Z,4.50
2017-10-24T06:59:22.942Z,4.60
2017-10-24T07:01:49.441Z,3.62
2017-10-24T07:04:15.936Z,5.07
2017-10-24T07:06:42.430Z,3.85
2017-10-24T07:09:08.855Z,4.10
2017-10-24T07:11:35.350Z,4.25
2017-10-24T07:14:01.838Z,4.22
2017-10-24T07:16:28.322Z,4.50
2017-10-24T07:18:54.822Z,5.93
2017-10-24T07:21:21.237Z,4.87
2017-10-24T07:23:48.438Z,5.22
2017-10-24T07:26:14.870Z,4.50
2017-10-24T07:28:41.382Z,4.25
2017-10-24T07:31:07.870Z,4.50
2017-10-24T07:33:34.338Z,3.47
2017-10-24T07:36:00.826Z,3.10
2017-10-24T07:38:27.254Z,3.00
2017-10-24T07:40:53.722Z,2.58
2017-10-24T07:43:20.921Z,2.30
2017-10-24T07:45:47.422Z,3.28
2017-10-24T07:48:13.931Z,2.85
2017-10-24T07:50:40.412Z,3.20
2017-10-24T07:53:06.874Z,2.70
2017-10-24T07:55:33.336Z,3.47
2017-10-24T07:58:00.567Z,3.30
2017-10-24T08:00:27.094Z,3.10
2017-10-24T08:02:53.578Z,2.60
2017-10-24T08:05:20.034Z,2.50
2017-10-24T08:07:46.505Z,2.40
2017-10-24T08:10:12.977Z,2.30
2017-10-24T08:12:39.430Z,1.60
2017-10-24T08:15:05.908Z,1.95
2017-10-24T08:17:32.360Z,2.00
2017-10-24T08:19:58.889Z,1.80
2017-10-24T08:22:26.087Z,1.92
2017-10-24T08:24:52.509Z,2.50
2017-10-24T08:27:19.017Z,1.98
2017-10-24T08:29:45.499Z,1.90
2017-10-24T08:32:12.003Z,2.00
2017-10-24T08:34:38.437Z,1.95
2017-10-24T08:37:04.883Z,1.80
2017-10-24T08:39:31.368Z,2.10
2017-10-24T08:41:58.569Z,2.40
2017-10-24T08:44:25.002Z,1.48
2017-10-24T08:46:51.494Z,1.80
2017-10-24T08:49:18.713Z,1.60
2017-10-24T08:51:45.142Z,1.77
2017-10-24T08:54:12.387Z,1.70
2017-10-24T08:56:38.903Z,2.20
2017-10-24T08:59:05.405Z,1.73
2017-10-24T09:01:31.937Z,2.25
2017-10-24T09:03:58.392Z,2.00
2017-10-24T09:06:46.578Z,2.45
2017-10-24T09:22:43.385Z,5.82
2017-10-24T09:25:09.814Z,5.82
2017-10-24T09:27:36.267Z,3.65
2017-10-24T09:30:02.760Z,3.87
2017-10-24T09:32:30.011Z,6.72
2017-10-24T09:34:56.522Z,3.33
2017-10-24T09:37:23.705Z,2.80
2017-10-24T09:39:50.217Z,5.75
2017-10-24T09:42:16.666Z,4.95
2017-10-24T09:44:43.178Z,4.90
2017-10-24T09:47:09.737Z,4.20
2017-10-24T09:49:37.626Z,4.85
2017-10-24T09:52:05.364Z,4.87
2017-10-24T09:54:41.287Z,3.60
2017-10-24T09:57:08.466Z,3.20
2017-10-24T09:59:36.958Z,3.28
2017-10-24T10:02:03.553Z,3.00
2017-10-24T10:04:30.013Z,3.00
2017-10-24T10:07:00.329Z,2.65
2017-10-24T10:09:27.577Z,2.78
2017-10-24T10:11:54.054Z,2.90
2017-10-24T10:14:24.983Z,2.72
2017-10-24T10:16:51.990Z,2.33
2017-10-24T10:19:18.519Z,2.25
2017-10-24T10:21:54.594Z,1.90
2017-10-24T10:24:28.805Z,2.00
2017-10-24T10:26:55.346Z,1.62
2017-10-24T10:29:21.830Z,2.03
2017-10-24T10:31:48.414Z,2.05
2017-10-24T10:34:14.895Z,1.60
2017-10-24T10:36:41.423Z,1.40
2017-10-24T10:39:07.925Z,1.52
2017-10-24T10:41:34.395Z,1.85
2017-10-24T10:44:00.862Z,2.35
2017-10-24T10:46:27.365Z,2.10
2017-10-24T10:48:53.818Z,1.77
2017-10-24T10:51:20.263Z,1.40
2017-10-24T10:53:46.740Z,1.60
2017-10-24T10:56:13.221Z,1.77
2017-10-24T10:58:39.742Z,1.90
2017-10-24T11:01:06.223Z,1.80
2017-10-24T11:03:32.746Z,1.80
2017-10-24T11:05:59.323Z,1.40
2017-10-24T11:08:25.824Z,1.90
2017-10-24T11:10:52.237Z,2.08
2017-10-24T11:13:19.416Z,2.90
2017-10-24T11:15:45.866Z,2.40
2017-10-24T11:18:12.322Z,1.58
2017-10-24T11:20:38.789Z,1.60
2017-10-24T11:23:05.989Z,2.40
2017-10-24T11:25:32.464Z,1.75
2017-10-24T11:27:58.878Z,2.10
2017-10-24T11:30:25.406Z,3.40
2017-10-24T11:32:51.855Z,2.37
2017-10-24T11:35:18.299Z,2.47
2017-10-24T11:37:44.784Z,2.10
2017-10-24T11:40:11.246Z,2.70
2017-10-24T11:42:38.465Z,2.10
2017-10-24T11:45:04.922Z,1.92
2017-10-24T11:47:31.343Z,1.80
2017-10-24T11:49:57.790Z,1.70
2017-10-24T11:52:25.027Z,3.30
2017-10-24T11:54:51.483Z,2.15
2017-10-24T11:57:17.941Z,3.05
2017-10-24T11:59:45.123Z,3.08
2017-10-24T12:02:11.577Z,4.97
2017-10-24T12:04:38.018Z,2.85
2017-10-24T12:07:04.417Z,2.85
2017-10-24T12:09:30.853Z,3.65
2017-10-24T12:11:57.280Z,2.70
2017-10-24T12:14:23.756Z,3.05
2017-10-24T12:16:50.238Z,2.70
2017-10-24T12:19:16.676Z,2.80
2017-10-24T12:21:43.917Z,2.22
2017-10-24T12:24:11.056Z,1.98
2017-10-24T12:26:38.259Z,2.90
2017-10-24T12:29:04.733Z,1.92
2017-10-24T12:31:31.210Z,1.73
2017-10-24T12:33:57.660Z,2.60
2017-10-24T12:36:24.883Z,2.62
2017-10-24T12:38:51.396Z,1.73
2017-10-24T12:41:17.886Z,1.80
2017-10-24T12:43:45.313Z,1.50
2017-10-24T12:46:11.746Z,5.53
2017-10-24T12:48:39.005Z,1.50
2017-10-24T12:51:08.428Z,1.40
2017-10-24T12:53:34.908Z,1.40
2017-10-24T12:56:01.450Z,1.50
2017-10-24T12:58:27.942Z,1.60
2017-10-24T13:00:54.415Z,1.50
2017-10-24T13:03:21.657Z,1.15
2017-10-24T13:05:48.916Z,1.30
2017-10-24T13:08:15.582Z,1.50
2017-10-24T13:10:42.028Z,1.10
2017-10-24T13:13:08.598Z,8.25
2017-10-24T13:15:35.078Z,2.50
2017-10-24T13:18:01.590Z,1.80
2017-10-24T13:20:28.038Z,1.45
2017-10-24T13:22:54.466Z,1.15
2017-10-24T13:25:20.959Z,1.35
2017-10-24T13:27:48.193Z,1.30
2017-10-24T13:30:15.257Z,1.25
2017-10-24T13:32:41.729Z,1.50
2017-10-24T13:35:08.933Z,1.30
2017-10-24T13:37:35.353Z,1.42
2017-10-24T13:40:01.815Z,1.30
2017-10-24T13:42:28.258Z,1.30
2017-10-24T13:44:54.722Z,0.88
2017-10-24T13:47:21.214Z,1.05
2017-10-24T13:49:47.658Z,1.00
2017-10-24T13:52:14.113Z,0.77
2017-10-24T13:54:40.593Z,1.05
2017-10-24T13:57:07.076Z,0.90
2017-10-24T13:59:34.266Z,0.90
2017-10-24T14:02:00.746Z,0.70
2017-10-24T14:04:33.286Z,0.82
2017-10-24T14:07:06.482Z,0.90
2017-10-24T14:09:39.077Z,0.95
2017-10-24T14:12:05.562Z,0.90
2017-10-24T14:14:32.119Z,1.02
2017-10-24T14:16:58.607Z,0.90
2017-10-24T14:19:25.035Z,1.20
2017-10-24T14:21:52.234Z,0.90
2017-10-24T14:24:18.666Z,1.55
2017-10-24T14:26:45.123Z,1.80
2017-10-24T14:29:12.348Z,1.65
2017-10-24T14:31:38.793Z,2.40
2017-10-24T14:34:06.024Z,1.40
2017-10-24T14:36:32.586Z,0.90
2017-10-24T14:38:59.038Z,1.25
2017-10-24T14:41:25.472Z,1.00
2017-10-24T14:43:51.924Z,1.00
2017-10-24T14:46:19.121Z,1.15
2017-10-24T14:48:45.645Z,1.70
2017-10-24T14:51:12.078Z,1.20
2017-10-24T14:53:38.590Z,1.30
2017-10-24T14:56:05.124Z,1.20
2017-10-24T14:58:31.574Z,1.50
2017-10-24T15:00:58.055Z,1.50
2017-10-24T15:03:24.533Z,1.48
2017-10-24T15:05:50.950Z,1.15
2017-10-24T15:08:17.375Z,1.30
2017-10-24T15:10:43.862Z,1.42
2017-10-24T15:13:10.296Z,1.87
2017-10-24T15:15:36.779Z,1.90
2017-10-24T15:18:03.234Z,1.80
2017-10-24T15:20:29.705Z,1.90
2017-10-24T15:22:56.174Z,1.67
2017-10-24T15:25:22.725Z,1.08
2017-10-24T15:27:49.209Z,1.00
2017-10-24T15:30:15.669Z,1.10
2017-10-24T15:32:42.856Z,1.37
2017-10-24T15:35:09.305Z,1.30
2017-10-24T15:37:35.780Z,1.50
2017-10-24T15:40:03.074Z,1.80
2017-10-24T15:42:29.555Z,1.75
2017-10-24T15:44:56.099Z,2.00
2017-10-24T15:47:22.523Z,3.50
2017-10-24T15:49:48.951Z,2.80
2017-10-24T15:52:15.469Z,1.80
2017-10-24T15:54:42.058Z,1.80
2017-10-24T15:57:08.487Z,2.17
2017-10-24T15:59:35.661Z,1.73
2017-10-24T16:02:02.115Z,2.00
2017-10-24T16:04:28.566Z,1.73
2017-10-24T16:06:55.048Z,2.30
2017-10-24T16:09:21.485Z,2.20
2017-10-24T16:11:47.967Z,2.20
2017-10-24T16:14:15.130Z,2.60
2017-10-24T16:16:42.418Z,2.25
2017-10-24T16:19:08.897Z,2.28
2017-10-24T16:21:35.369Z,2.00
2017-10-24T16:24:02.552Z,2.00
2017-10-24T16:26:29.008Z,2.37
2017-10-24T16:28:55.545Z,2.10
2017-10-24T16:31:22.006Z,6.20
2017-10-24T16:33:48.488Z,9.55
2017-10-24T16:36:15.022Z,5.97
2017-10-24T16:38:41.541Z,3.30
2017-10-24T16:41:08.033Z,2.65
2017-10-24T16:43:34.474Z,2.53
2017-10-24T16:46:00.965Z,3.12
2017-10-24T16:48:27.406Z,3.40
2017-10-24T16:50:53.938Z,9.35
2017-10-24T16:53:20.396Z,20.37
2017-10-24T16:55:46.903Z,20.83
2017-10-24T16:58:13.368Z,23.95
2017-10-24T17:00:39.785Z,15.25
2017-10-24T17:03:06.281Z,11.48
2017-10-24T17:05:32.738Z,14.90
2017-10-24T17:07:59.193Z,9.38
2017-10-24T17:10:25.623Z,10.13
2017-10-24T17:12:52.230Z,11.10
2017-10-24T17:15:18.683Z,9.23
2017-10-24T17:17:45.137Z,17.77
2017-10-24T17:20:11.640Z,13.13
2017-10-24T17:22:38.129Z,11.00
2017-10-24T17:25:05.328Z,3.53
2017-10-24T17:27:31.806Z,4.00
2017-10-24T17:29:58.977Z,5.05
2017-10-24T17:32:25.541Z,4.00
2017-10-24T17:34:52.007Z,4.18
2017-10-24T17:37:18.434Z,3.92
2017-10-24T17:39:44.963Z,3.78
2017-10-24T17:42:12.174Z,3.90
2017-10-24T17:44:38.696Z,3.45
2017-10-24T17:47:05.223Z,5.62
2017-10-24T17:49:31.669Z,5.90
2017-10-24T17:51:59.029Z,6.78
2017-10-24T17:54:25.567Z,37.40
2017-10-24T17:56:52.038Z,25.60
2017-10-24T17:59:19.324Z,10.88
2017-10-24T18:01:46.529Z,5.00
2017-10-24T18:04:13.008Z,4.18
2017-10-24T18:06:39.522Z,4.05
2017-10-24T18:09:05.985Z,3.60
2017-10-24T18:11:32.515Z,4.00
2017-10-24T18:13:59.768Z,4.18
2017-10-24T18:16:26.253Z,4.07
2017-10-24T18:18:52.723Z,3.62
2017-10-24T18:21:19.239Z,4.20
2017-10-24T18:23:45.730Z,4.93
2017-10-24T18:26:12.193Z,5.53
2017-10-24T18:28:39.519Z,6.25
2017-10-24T18:31:06.039Z,6.45
2017-10-24T18:33:32.488Z,5.45
2017-10-24T18:35:59.053Z,5.12
2017-10-24T18:38:25.590Z,4.60
2017-10-24T18:40:52.043Z,5.85
2017-10-24T18:43:18.547Z,5.50
2017-10-24T18:45:45.728Z,4.93
2017-10-24T18:48:12.252Z,5.82
2017-10-24T18:50:38.762Z,4.72
2017-10-24T18:53:05.262Z,5.68
2017-10-24T18:55:31.738Z,5.30
2017-10-24T18:57:58.256Z,6.20
2017-10-24T19:00:25.439Z,6.15
2017-10-24T19:02:51.875Z,6.37
2017-10-24T19:05:18.403Z,6.57
2017-10-24T19:07:44.882Z,5.90
2017-10-24T19:10:11.386Z,4.87
2017-10-24T19:12:37.830Z,5.65
2017-10-24T19:15:04.342Z,5.90
2017-10-24T19:17:30.760Z,4.90
2017-10-24T19:19:57.908Z,5.70
2017-10-24T19:22:25.083Z,4.37
2017-10-24T19:24:51.523Z,4.95
2017-10-24T19:27:17.959Z,5.65
2017-10-24T19:29:44.437Z,5.40
2017-10-24T19:32:11.657Z,6.20
2017-10-24T19:34:38.082Z,6.00
2017-10-24T19:37:04.514Z,5.97
2017-10-24T19:39:30.953Z,6.28
2017-10-24T19:41:57.394Z,5.22
2017-10-24T19:44:23.839Z,4.40
2017-10-24T19:46:50.242Z,4.15
2017-10-24T19:49:16.684Z,5.22
2017-10-24T19:51:43.087Z,5.50
2017-10-24T19:54:09.478Z,8.93
2017-10-24T19:56:35.879Z,9.27
2017-10-24T19:59:02.290Z,6.75
2017-10-24T20:01:28.746Z,5.32
2017-10-24T20:03:55.183Z,6.45
2017-10-24T20:06:21.601Z,7.30
2017-10-24T20:08:48.013Z,7.28
2017-10-24T20:11:14.406Z,6.12
2017-10-24T20:13:40.844Z,7.97
2017-10-24T20:16:07.309Z,10.35
2017-10-24T20:18:33.773Z,13.05
2017-10-24T20:21:00.150Z,8.85
2017-10-24T20:23:26.557Z,13.05
2017-10-24T20:25:52.993Z,13.35
2017-10-24T20:28:19.421Z,14.75
2017-10-24T20:30:45.798Z,12.73
2017-10-24T20:33:12.248Z,16.25
2017-10-24T20:35:38.718Z,6.82
2017-10-24T20:38:05.158Z,6.00
2017-10-24T20:40:31.556Z,4.57
2017-10-24T20:42:57.961Z,4.25
2017-10-24T20:45:24.372Z,4.20
2017-10-24T20:47:50.809Z,4.90
2017-10-24T20:50:17.992Z,4.03
2017-10-24T20:52:44.394Z,3.60
2017-10-24T20:55:11.646Z,4.15
2017-10-24T20:57:38.790Z,4.57
2017-10-24T21:00:05.926Z,3.30
2017-10-24T21:02:33.090Z,3.62
2017-10-24T21:05:00.186Z,3.40
2017-10-24T21:07:26.577Z,3.25
2017-10-24T21:09:53.047Z,3.67
2017-10-24T21:12:19.446Z,3.33
2017-10-24T21:14:45.880Z,3.62
2017-10-24T21:17:12.254Z,3.80
2017-10-24T21:19:38.626Z,3.47
2017-10-24T21:22:05.771Z,3.30
2017-10-24T21:24:32.941Z,4.15
2017-10-24T21:26:59.346Z,3.72
2017-10-24T21:29:25.766Z,3.50
2017-10-24T21:31:52.242Z,3.10
2017-10-24T21:34:18.634Z,3.60
2017-10-24T21:36:45.071Z,3.33
2017-10-24T21:39:12.242Z,2.75
2017-10-24T21:41:38.649Z,3.67
2017-10-24T21:44:05.145Z,3.22
2017-10-24T21:46:31.514Z,2.67
2017-10-24T21:48:57.887Z,2.55
2017-10-24T21:51:25.042Z,3.10
2017-10-24T21:53:51.415Z,3.05
2017-10-24T21:56:17.801Z,3.20
2017-10-24T21:58:44.236Z,2.78
2017-10-24T22:01:10.627Z,3.40
2017-10-24T22:03:37.008Z,3.50
2017-10-24T22:06:03.461Z,2.90
2017-10-24T22:08:29.838Z,3.00
2017-10-24T22:10:57.040Z,3.37
2017-10-24T22:13:23.440Z,3.25
2017-10-24T22:15:49.822Z,3.35
2017-10-24T22:18:16.290Z,2.78
2017-10-24T22:20:43.393Z,3.05
2017-10-24T22:23:09.823Z,3.10
2017-10-24T22:25:36.218Z,3.33
2017-10-24T22:28:02.623Z,4.65
2017-10-24T22:30:29.814Z,5.05
2017-10-24T22:32:56.187Z,4.12
2017-10-24T22:35:22.550Z,4.30
2017-10-24T22:37:48.970Z,4.60
2017-10-24T22:40:16.105Z,5.37
2017-10-24T22:42:42.503Z,3.85
2017-10-24T22:45:08.874Z,2.72
2017-10-24T22:47:35.286Z,3.72
2017-10-24T22:50:01.734Z,2.78
2017-10-24T22:52:28.113Z,2.45
2017-10-24T22:54:54.502Z,2.45
2017-10-24T22:57:20.883Z,2.30
2017-10-24T22:59:47.287Z,2.10
2017-10-24T23:02:14.412Z,2.53
2017-10-24T23:04:40.857Z,2.90
2017-10-24T23:07:07.336Z,2.90
2017-10-24T23:09:33.831Z,3.30
2017-10-24T23:12:00.269Z,2.58
2017-10-24T23:14:26.778Z,2.20
2017-10-24T23:16:53.220Z,2.10
2017-10-24T23:19:19.665Z,2.50
2017-10-24T23:21:46.157Z,2.33
2017-10-24T23:24:13.337Z,2.45
2017-10-24T23:26:39.785Z,2.72
2017-10-24T23:29:06.250Z,2.50
2017-10-24T23:31:32.677Z,2.55
2017-10-24T23:33:59.126Z,2.75
2017-10-24T23:36:25.585Z,3.03
2017-10-24T23:38:52.048Z,3.25
2017-10-24T23:41:18.481Z,3.40
2017-10-24T23:43:44.931Z,3.20
2017-10-24T23:46:11.370Z,3.53
2017-10-24T23:48:38.589Z,2.70
2017-10-24T23:51:05.069Z,2.37
2017-10-24T23:53:31.478Z,1.73
2017-10-24T23:55:58.682Z,2.00
2017-10-24T23:58:25.174Z,2.10
